createdAt,value
2023-02-19T00:02:15.408Z,100.00
2023-02-19T00:04:45.849Z,100.00
2023-02-19T00:07:15.118Z,100.00
2023-02-19T00:09:45.196Z,100.00
2023-02-19T00:12:12.223Z,100.00
2023-02-19T00:14:39.209Z,100.00
2023-02-19T00:17:06.136Z,100.00
2023-02-19T00:19:33.173Z,100.00
2023-02-19T00:22:00.092Z,100.00
2023-02-19T00:24:27.032Z,100.00
2023-02-19T00:26:54.013Z,100.00
2023-02-19T00:29:21.618Z,100.00
2023-02-19T00:31:49.204Z,100.00
2023-02-19T00:34:16.711Z,100.00
2023-02-19T00:36:44.062Z,100.00
2023-02-19T00:39:13.990Z,100.00
2023-02-19T00:41:41.120Z,100.00
2023-02-19T00:44:08.591Z,100.00
2023-02-19T00:46:37.631Z,100.00
2023-02-19T00:49:05.659Z,100.00
2023-02-19T00:51:34.081Z,100.00
2023-02-19T00:54:01.176Z,100.00
2023-02-19T00:56:28.820Z,100.00
2023-02-19T00:58:57.499Z,100.00
2023-02-19T01:01:24.085Z,100.00
2023-02-19T01:03:51.600Z,100.00
2023-02-19T01:06:20.174Z,100.00
2023-02-19T01:08:47.546Z,100.00
2023-02-19T01:11:15.024Z,100.00
2023-02-19T01:13:42.583Z,100.00
2023-02-19T01:16:13.673Z,100.00
2023-02-19T01:18:43.510Z,100.00
2023-02-19T01:21:14.286Z,100.00
2023-02-19T01:23:42.950Z,100.00
2023-02-19T01:26:12.666Z,100.00
2023-02-19T01:28:39.874Z,100.00
2023-02-19T01:31:08.517Z,100.00
2023-02-19T01:33:35.867Z,100.00
2023-02-19T01:36:03.833Z,100.00
2023-02-19T01:38:30.710Z,100.00
2023-02-19T01:40:59.350Z,100.00
2023-02-19T01:43:26.706Z,100.00
2023-02-19T01:45:53.698Z,100.00
2023-02-19T01:48:23.800Z,100.00
2023-02-19T01:50:55.926Z,100.00
2023-02-19T01:53:25.188Z,100.00
2023-02-19T01:55:55.707Z,100.00
2023-02-19T01:58:24.677Z,100.00
2023-02-19T02:00:52.206Z,100.00
2023-02-19T02:03:20.787Z,100.00
2023-02-19T02:05:54.851Z,100.00
2023-02-19T02:08:40.460Z,100.00
2023-02-19T02:11:07.747Z,100.00
2023-02-19T02:13:35.157Z,100.00
2023-02-19T02:16:14.896Z,100.00
2023-02-19T02:18:45.886Z,100.00
2023-02-19T02:21:14.239Z,100.00
2023-02-19T02:24:00.247Z,100.00
2023-02-19T02:26:46.674Z,100.00
2023-02-19T02:29:32.196Z,100.00
2023-02-19T02:32:03.353Z,100.00
2023-02-19T02:34:38.247Z,100.00
2023-02-19T02:37:08.186Z,100.00
2023-02-19T02:39:36.641Z,100.00
2023-02-19T02:42:29.853Z,100.00
2023-02-19T02:45:16.424Z,100.00
2023-02-19T02:47:50.654Z,100.00
2023-02-19T02:50:21.021Z,100.00
2023-02-19T02:53:11.564Z,100.00
2023-02-19T02:55:43.344Z,100.00
2023-02-19T02:58:12.048Z,100.00
2023-02-19T03:01:00.275Z,100.00
2023-02-19T03:03:29.847Z,100.00
2023-02-19T03:05:59.044Z,100.00
2023-02-19T03:08:29.190Z,100.00
2023-02-19T03:11:23.957Z,100.00
2023-02-19T03:14:33.622Z,100.00
2023-02-19T03:17:24.917Z,100.00
2023-02-19T03:19:54.793Z,100.00
2023-02-19T03:22:25.353Z,100.00
2023-02-19T03:25:13.638Z,100.00
2023-02-19T03:27:42.885Z,100.00
2023-02-19T03:30:16.608Z,100.00
2023-02-19T03:33:10.177Z,100.00
2023-02-19T03:35:42.709Z,100.00
2023-02-19T03:38:09.587Z,100.00
2023-02-19T03:40:44.195Z,100.00
2023-02-19T03:43:18.154Z,100.00
2023-02-19T03:45:53.315Z,100.00
2023-02-19T03:48:27.544Z,100.00
2023-02-19T03:51:14.500Z,100.00
2023-02-19T03:53:44.325Z,100.00
2023-02-19T03:56:16.317Z,100.00
2023-02-19T03:58:50.199Z,100.00
2023-02-19T04:01:32.956Z,100.00
2023-02-19T04:04:15.953Z,100.00
2023-02-19T04:06:47.639Z,100.00
2023-02-19T04:09:19.439Z,100.00
2023-02-19T04:11:47.200Z,100.00
2023-02-19T04:14:37.559Z,100.00
2023-02-19T04:17:07.761Z,100.00
2023-02-19T04:19:37.567Z,100.00
2023-02-19T04:22:06.577Z,100.00
2023-02-19T04:24:47.592Z,100.00
2023-02-19T04:27:14.583Z,100.00
2023-02-19T04:29:41.242Z,100.00
2023-02-19T04:32:09.706Z,100.00
2023-02-19T04:34:36.415Z,100.00
2023-02-19T04:37:03.287Z,100.00
2023-02-19T04:39:30.652Z,100.00
2023-02-19T04:41:59.668Z,100.00
2023-02-19T04:44:26.894Z,100.00
2023-02-19T04:46:54.127Z,100.00
2023-02-19T04:49:21.264Z,100.00
2023-02-19T04:51:48.621Z,100.00
2023-02-19T04:54:15.614Z,100.00
2023-02-19T04:56:42.218Z,100.00
2023-02-19T04:59:08.784Z,100.00
2023-02-19T05:01:35.898Z,100.00
2023-02-19T05:04:05.604Z,100.00
2023-02-19T05:06:32.813Z,100.00
2023-02-19T05:08:59.806Z,100.00
2023-02-19T05:11:27.216Z,100.00
2023-02-19T05:13:55.164Z,100.00
2023-02-19T05:16:22.409Z,100.00
2023-02-19T05:18:49.149Z,100.00
2023-02-19T05:21:16.474Z,100.00
2023-02-19T05:23:43.654Z,100.00
2023-02-19T05:26:15.035Z,100.00
2023-02-19T05:28:41.875Z,100.00
2023-02-19T05:31:09.380Z,100.00
2023-02-19T05:33:38.024Z,100.00
2023-02-19T05:36:11.582Z,100.00
2023-02-19T05:38:38.942Z,100.00
2023-02-19T05:41:07.123Z,100.00
2023-02-19T05:43:34.129Z,100.00
2023-02-19T05:46:01.011Z,100.00
2023-02-19T05:48:28.171Z,100.00
2023-02-19T05:50:55.162Z,100.00
2023-02-19T05:53:22.257Z,100.00
2023-02-19T05:55:48.982Z,100.00
2023-02-19T05:58:16.123Z,100.00
2023-02-19T06:00:43.220Z,100.00
2023-02-19T06:03:13.560Z,100.00
2023-02-19T06:05:40.331Z,100.00
2023-02-19T06:08:08.082Z,100.00
2023-02-19T06:10:34.879Z,100.00
2023-02-19T06:13:01.677Z,100.00
2023-02-19T06:15:28.218Z,100.00
2023-02-19T06:17:55.712Z,100.00
2023-02-19T06:20:26.408Z,100.00
2023-02-19T06:22:53.897Z,100.00
2023-02-19T06:25:20.801Z,100.00
2023-02-19T06:27:47.866Z,100.00
2023-02-19T06:30:14.651Z,100.00
2023-02-19T06:32:42.009Z,100.00
2023-02-19T06:35:08.615Z,100.00
2023-02-19T06:37:35.824Z,100.00
2023-02-19T06:40:03.442Z,100.00
2023-02-19T06:42:33.440Z,100.00
2023-02-19T06:45:00.199Z,100.00
2023-02-19T06:47:27.133Z,100.00
2023-02-19T06:49:53.952Z,100.00
2023-02-19T06:52:21.533Z,100.00
2023-02-19T06:54:49.025Z,100.00
2023-02-19T06:57:16.161Z,100.00
2023-02-19T06:59:43.674Z,100.00
2023-02-19T07:02:11.799Z,100.00
2023-02-19T07:04:38.916Z,100.00
2023-02-19T07:07:05.975Z,100.00
2023-02-19T07:09:33.208Z,100.00
2023-02-19T07:11:59.811Z,100.00
2023-02-19T07:14:27.493Z,100.00
2023-02-19T07:16:54.566Z,100.00
2023-02-19T07:19:22.509Z,100.00
2023-02-19T07:21:49.159Z,100.00
2023-02-19T07:24:16.113Z,100.00
2023-02-19T07:26:43.320Z,100.00
2023-02-19T07:29:11.642Z,100.00
2023-02-19T07:31:38.334Z,100.00
2023-02-19T07:34:09.205Z,100.00
2023-02-19T07:36:36.332Z,100.00
2023-02-19T07:39:03.372Z,100.00
2023-02-19T07:41:31.231Z,100.00
2023-02-19T07:43:58.776Z,100.00
2023-02-19T07:46:26.318Z,100.00
2023-02-19T07:48:53.536Z,100.00
2023-02-19T07:51:21.071Z,100.00
2023-02-19T07:53:50.894Z,100.00
2023-02-19T07:56:19.124Z,100.00
2023-02-19T07:58:48.752Z,100.00
2023-02-19T08:01:16.816Z,100.00
2023-02-19T08:03:44.158Z,100.00
2023-02-19T08:06:13.963Z,100.00
2023-02-19T08:08:40.765Z,100.00
2023-02-19T08:11:28.612Z,100.00
2023-02-19T08:13:55.423Z,100.00
2023-02-19T08:16:36.824Z,100.00
2023-02-19T08:19:09.251Z,100.00
2023-02-19T08:21:36.224Z,100.00
2023-02-19T08:24:03.483Z,100.00
2023-02-19T08:26:30.888Z,100.00
2023-02-19T08:28:59.223Z,100.00
2023-02-19T08:31:27.087Z,100.00
2023-02-19T08:33:54.864Z,100.00
2023-02-19T08:36:21.677Z,100.00
2023-02-19T08:38:48.386Z,100.00
2023-02-19T08:41:15.849Z,100.00
2023-02-19T08:47:15.032Z,100.00
2023-02-19T08:49:41.789Z,100.00
2023-02-19T08:52:09.960Z,100.00
2023-02-19T08:54:38.034Z,100.00
2023-02-19T08:57:06.483Z,100.00
2023-02-19T08:59:35.880Z,100.00
2023-02-19T09:02:02.985Z,100.00
2023-02-19T09:04:33.241Z,100.00
2023-02-19T09:07:01.113Z,100.00
2023-02-19T09:09:29.932Z,100.00
2023-02-19T09:12:02.613Z,100.00
2023-02-19T09:14:32.638Z,100.00
2023-02-19T09:17:03.296Z,100.00
2023-02-19T09:19:31.986Z,100.00
2023-02-19T09:21:59.838Z,100.00
2023-02-19T09:24:29.993Z,100.00
2023-02-19T09:26:57.534Z,100.00
2023-02-19T09:32:49.334Z,100.00
2023-02-19T09:35:16.048Z,100.00
2023-02-19T09:37:43.257Z,100.00
2023-02-19T09:40:10.634Z,100.00
2023-02-19T09:42:42.755Z,100.00
2023-02-19T09:45:15.893Z,100.00
2023-02-19T09:47:44.610Z,100.00
2023-02-19T09:50:15.472Z,100.00
2023-02-19T09:52:50.259Z,100.00
2023-02-19T09:55:37.869Z,100.00
2023-02-19T09:58:26.840Z,100.00
2023-02-19T10:00:55.443Z,100.00
2023-02-19T10:03:36.117Z,100.00
2023-02-19T10:06:21.812Z,100.00
2023-02-19T10:08:56.573Z,100.00
2023-02-19T10:11:25.757Z,100.00
2023-02-19T10:14:09.254Z,100.00
2023-02-19T10:16:40.704Z,100.00
2023-02-19T10:19:11.182Z,100.00
2023-02-19T10:21:39.948Z,100.00
2023-02-19T10:24:16.804Z,100.00
2023-02-19T10:26:49.712Z,99.86
2023-02-19T10:29:16.578Z,99.25
2023-02-19T10:31:43.815Z,98.66
2023-02-19T10:34:19.240Z,98.19
2023-02-19T10:36:48.375Z,97.66
2023-02-19T10:39:21.839Z,97.61
2023-02-19T10:41:50.549Z,96.46
2023-02-19T10:44:28.519Z,96.75
2023-02-19T10:46:59.198Z,96.86
2023-02-19T10:49:28.537Z,96.89
2023-02-19T10:51:56.167Z,96.08
2023-02-19T10:54:29.822Z,94.30
2023-02-19T10:57:14.680Z,94.60
2023-02-19T10:59:52.535Z,95.47
2023-02-19T11:02:20.464Z,96.56
2023-02-19T11:05:06.802Z,95.19
2023-02-19T11:07:33.652Z,95.17
2023-02-19T11:10:02.578Z,95.62
2023-02-19T11:12:31.406Z,96.84
2023-02-19T11:15:13.365Z,98.36
2023-02-19T11:17:40.393Z,99.15
2023-02-19T11:20:17.119Z,100.00
2023-02-19T11:22:49.137Z,98.30
2023-02-19T11:25:17.167Z,98.14
2023-02-19T11:27:56.054Z,94.67
2023-02-19T11:30:36.384Z,95.24
2023-02-19T11:33:15.838Z,94.35
2023-02-19T11:35:45.939Z,93.10
2023-02-19T11:38:14.101Z,94.47
2023-02-19T11:40:41.246Z,94.19
2023-02-19T11:43:16.480Z,93.66
2023-02-19T11:46:00.113Z,93.29
2023-02-19T11:48:40.475Z,94.16
2023-02-19T11:51:16.006Z,96.39
2023-02-19T11:53:49.647Z,98.15
2023-02-19T11:56:24.304Z,98.65
2023-02-19T11:58:58.014Z,98.95
2023-02-19T12:01:31.544Z,100.00
2023-02-19T12:04:17.591Z,100.00
2023-02-19T12:06:58.820Z,100.00
2023-02-19T12:09:40.477Z,100.00
2023-02-19T12:12:10.206Z,100.00
2023-02-19T12:14:49.112Z,100.00
2023-02-19T12:17:19.029Z,100.00
2023-02-19T12:20:10.540Z,100.00
2023-02-19T12:22:43.637Z,100.00
2023-02-19T12:25:26.086Z,100.00
2023-02-19T12:28:19.802Z,100.00
2023-02-19T12:30:46.665Z,100.00
2023-02-19T12:33:13.630Z,99.26
2023-02-19T12:35:46.332Z,98.80
2023-02-19T12:38:13.054Z,98.03
2023-02-19T12:40:52.790Z,96.67
2023-02-19T12:43:21.337Z,95.55
2023-02-19T12:45:58.883Z,95.99
2023-02-19T12:48:33.077Z,94.66
2023-02-19T12:51:10.865Z,94.78
2023-02-19T12:53:45.259Z,94.62
2023-02-19T12:56:34.598Z,94.20
2023-02-19T12:59:06.528Z,95.79
2023-02-19T13:01:37.966Z,94.99
2023-02-19T13:04:17.994Z,94.99
2023-02-19T13:06:50.240Z,95.14
2023-02-19T13:09:31.054Z,95.39
2023-02-19T13:12:16.836Z,94.59
2023-02-19T13:14:46.989Z,94.96
2023-02-19T13:17:20.893Z,94.22
2023-02-19T13:19:51.393Z,93.93
2023-02-19T13:23:03.520Z,93.91
2023-02-19T13:25:44.245Z,95.16
2023-02-19T13:28:40.312Z,95.08
2023-02-19T13:31:07.284Z,94.72
2023-02-19T13:33:43.160Z,95.26
2023-02-19T13:36:10.650Z,95.60
2023-02-19T13:38:45.397Z,95.98
2023-02-19T13:41:39.477Z,95.17
2023-02-19T13:44:08.327Z,93.90
2023-02-19T13:46:38.056Z,94.79
2023-02-19T13:49:23.901Z,94.40
2023-02-19T13:51:51.742Z,93.55
2023-02-19T13:54:24.852Z,95.27
2023-02-19T13:57:11.147Z,96.55
2023-02-19T13:59:38.900Z,99.46
2023-02-19T14:02:10.192Z,100.00
2023-02-19T14:04:39.891Z,100.00
2023-02-19T14:07:06.986Z,100.00
2023-02-19T14:09:39.989Z,100.00
2023-02-19T14:12:15.052Z,100.00
2023-02-19T14:14:48.849Z,100.00
2023-02-19T14:17:35.021Z,100.00
2023-02-19T14:20:01.867Z,100.00
2023-02-19T14:22:55.541Z,100.00
2023-02-19T14:25:29.236Z,100.00
2023-02-19T14:28:00.944Z,100.00
2023-02-19T14:30:28.566Z,100.00
2023-02-19T14:33:09.804Z,100.00
2023-02-19T14:35:45.090Z,100.00
2023-02-19T14:38:18.677Z,100.00
2023-02-19T14:40:49.848Z,100.00
2023-02-19T14:43:17.924Z,100.00
2023-02-19T14:45:50.257Z,100.00
2023-02-19T14:48:20.786Z,100.00
2023-02-19T14:50:49.939Z,100.00
2023-02-19T14:53:17.535Z,100.00
2023-02-19T14:55:46.971Z,100.00
2023-02-19T14:58:18.124Z,100.00
2023-02-19T15:00:45.164Z,100.00
2023-02-19T15:03:29.621Z,100.00
2023-02-19T15:05:58.789Z,100.00
2023-02-19T15:08:29.257Z,100.00
2023-02-19T15:10:59.220Z,100.00
2023-02-19T15:13:28.047Z,100.00
2023-02-19T15:15:55.556Z,100.00
2023-02-19T15:18:23.805Z,100.00
2023-02-19T15:20:51.761Z,100.00
2023-02-19T15:23:23.889Z,100.00
2023-02-19T15:25:51.766Z,100.00
2023-02-19T15:28:28.210Z,100.00
2023-02-19T15:30:58.196Z,100.00
2023-02-19T15:33:27.343Z,100.00
2023-02-19T15:36:03.022Z,100.00
2023-02-19T15:38:33.114Z,100.00
2023-02-19T15:41:00.450Z,100.00
2023-02-19T15:43:31.165Z,100.00
2023-02-19T15:46:04.477Z,100.00
2023-02-19T15:48:36.366Z,100.00
2023-02-19T15:51:09.185Z,100.00
2023-02-19T15:53:41.709Z,100.00
2023-02-19T15:56:08.518Z,100.00
2023-02-19T15:58:43.061Z,99.09
2023-02-19T16:01:38.959Z,98.74
2023-02-19T16:04:14.117Z,99.64
2023-02-19T16:07:00.551Z,98.87
2023-02-19T16:09:31.035Z,97.36
2023-02-19T16:12:01.620Z,96.34
2023-02-19T16:14:32.945Z,94.67
2023-02-19T16:17:06.782Z,94.36
2023-02-19T16:19:42.627Z,94.29
2023-02-19T16:22:11.465Z,94.50
2023-02-19T16:24:46.027Z,94.34
2023-02-19T16:27:14.505Z,94.72
2023-02-19T16:29:41.575Z,94.90
2023-02-19T16:32:15.787Z,94.02
2023-02-19T16:34:46.903Z,93.93
2023-02-19T16:37:33.004Z,94.73
2023-02-19T16:40:11.876Z,94.04
2023-02-19T16:42:51.991Z,91.92
2023-02-19T16:45:19.409Z,91.56
2023-02-19T16:47:51.182Z,93.13
2023-02-19T16:50:22.865Z,91.75
2023-02-19T16:52:54.221Z,92.25
2023-02-19T16:55:20.969Z,92.61
2023-02-19T16:57:48.210Z,92.50
2023-02-19T17:00:21.880Z,92.36
2023-02-19T17:02:50.078Z,93.04
2023-02-19T17:05:17.930Z,94.30
2023-02-19T17:07:44.916Z,94.89
2023-02-19T17:10:19.710Z,94.43
2023-02-19T17:12:46.800Z,94.13
2023-02-19T17:15:14.643Z,96.12
2023-02-19T17:17:41.838Z,95.67
2023-02-19T17:20:17.771Z,95.66
2023-02-19T17:22:44.672Z,96.54
2023-02-19T17:25:12.101Z,96.54
2023-02-19T17:27:38.801Z,96.94
2023-02-19T17:30:12.175Z,96.91
2023-02-19T17:32:39.038Z,97.17
2023-02-19T17:35:06.500Z,97.31
2023-02-19T17:37:33.499Z,97.76
2023-02-19T17:40:00.754Z,98.79
2023-02-19T17:42:27.473Z,98.12
2023-02-19T17:44:54.961Z,99.02
2023-02-19T17:47:21.763Z,99.78
2023-02-19T17:49:48.814Z,100.00
2023-02-19T17:52:17.732Z,100.00
2023-02-19T17:54:44.894Z,100.00
2023-02-19T17:57:11.461Z,100.00
2023-02-19T17:59:38.937Z,100.00
2023-02-19T18:02:06.447Z,100.00
2023-02-19T18:04:37.028Z,100.00
2023-02-19T18:09:46.008Z,100.00
2023-02-19T18:12:12.905Z,100.00
2023-02-19T18:14:43.015Z,100.00
2023-02-19T18:17:10.585Z,100.00
2023-02-19T18:19:37.160Z,100.00
2023-02-19T18:22:06.332Z,100.00
2023-02-19T18:24:34.687Z,100.00
2023-02-19T18:27:07.181Z,100.00
2023-02-19T18:29:35.175Z,100.00
2023-02-19T18:32:02.563Z,100.00
2023-02-19T18:34:33.171Z,100.00
2023-02-19T18:37:00.073Z,100.00
2023-02-19T18:39:27.162Z,100.00
2023-02-19T18:41:54.548Z,100.00
2023-02-19T18:44:22.085Z,100.00
2023-02-19T18:46:50.365Z,100.00
2023-02-19T18:49:18.004Z,100.00
2023-02-19T18:51:45.588Z,100.00
2023-02-19T18:54:13.057Z,100.00
2023-02-19T18:56:40.855Z,100.00
2023-02-19T18:59:08.447Z,100.00
2023-02-19T19:01:35.437Z,100.00
2023-02-19T19:04:02.834Z,100.00
2023-02-19T19:06:30.813Z,100.00
2023-02-19T19:08:58.889Z,100.00
2023-02-19T19:11:25.981Z,100.00
2023-02-19T19:13:56.066Z,100.00
2023-02-19T19:16:27.474Z,100.00
2023-02-19T19:18:54.967Z,100.00
2023-02-19T19:21:22.012Z,100.00
2023-02-19T19:23:51.192Z,100.00
2023-02-19T19:26:17.932Z,100.00
2023-02-19T19:28:44.902Z,100.00
2023-02-19T19:31:13.492Z,100.00
2023-02-19T19:33:41.383Z,100.00
2023-02-19T19:36:08.943Z,100.00
2023-02-19T19:38:36.279Z,100.00
2023-02-19T19:41:04.314Z,100.00
2023-02-19T19:43:32.065Z,100.00
2023-02-19T19:45:59.952Z,100.00
2023-02-19T19:48:27.866Z,100.00
2023-02-19T19:50:58.106Z,100.00
2023-02-19T19:53:25.611Z,100.00
2023-02-19T19:55:53.626Z,100.00
2023-02-19T19:58:24.569Z,100.00
2023-02-19T20:00:53.578Z,100.00
2023-02-19T20:03:20.880Z,100.00
2023-02-19T20:05:52.342Z,100.00
2023-02-19T20:08:19.931Z,100.00
2023-02-19T20:10:46.931Z,100.00
2023-02-19T20:13:24.417Z,100.00
2023-02-19T20:15:52.416Z,99.93
2023-02-19T20:18:21.574Z,100.00
2023-02-19T20:20:48.841Z,100.00
2023-02-19T20:23:15.382Z,100.00
2023-02-19T20:25:42.759Z,100.00
2023-02-19T20:28:09.992Z,100.00
2023-02-19T20:30:37.470Z,100.00
2023-02-19T20:33:04.564Z,100.00
2023-02-19T20:35:31.924Z,100.00
2023-02-19T20:37:58.789Z,100.00
2023-02-19T20:40:28.142Z,100.00
2023-02-19T20:42:55.659Z,100.00
2023-02-19T20:45:22.885Z,100.00
2023-02-19T20:47:50.003Z,100.00
2023-02-19T20:50:18.773Z,99.04
2023-02-19T20:52:46.639Z,100.00
2023-02-19T20:55:13.595Z,99.72
2023-02-19T20:57:40.622Z,100.00
2023-02-19T21:00:08.722Z,99.89
2023-02-19T21:02:35.839Z,99.96
2023-02-19T21:05:04.353Z,99.19
2023-02-19T21:07:31.540Z,99.13
2023-02-19T21:09:58.100Z,99.48
2023-02-19T21:12:25.470Z,99.97
2023-02-19T21:14:52.952Z,99.76
2023-02-19T21:17:20.852Z,100.00
2023-02-19T21:19:50.158Z,100.00
2023-02-19T21:22:17.210Z,100.00
2023-02-19T21:24:44.852Z,100.00
2023-02-19T21:27:11.312Z,100.00
2023-02-19T21:29:38.193Z,100.00
2023-02-19T21:32:05.348Z,100.00
2023-02-19T21:34:34.830Z,100.00
2023-02-19T21:37:02.157Z,100.00
2023-02-19T21:39:30.609Z,100.00
2023-02-19T21:41:58.676Z,100.00
2023-02-19T21:44:26.363Z,100.00
2023-02-19T21:46:54.754Z,100.00
2023-02-19T21:49:21.946Z,100.00
2023-02-19T21:51:52.441Z,100.00
2023-02-19T21:54:21.647Z,100.00
2023-02-19T21:56:49.047Z,100.00
2023-02-19T21:59:16.169Z,100.00
2023-02-19T22:01:43.485Z,100.00
2023-02-19T22:04:12.982Z,100.00
2023-02-19T22:06:40.757Z,100.00
2023-02-19T22:09:08.018Z,100.00
2023-02-19T22:11:34.976Z,99.68
2023-02-19T22:14:01.690Z,100.00
2023-02-19T22:16:28.899Z,100.00
2023-02-19T22:18:57.420Z,100.00
2023-02-19T22:21:25.832Z,99.74
2023-02-19T22:23:53.839Z,100.00
2023-02-19T22:26:27.929Z,100.00
2023-02-19T22:28:56.352Z,99.94
2023-02-19T22:31:24.473Z,99.95
2023-02-19T22:33:51.749Z,99.54
2023-02-19T22:36:20.352Z,100.00
2023-02-19T22:38:48.599Z,100.00
2023-02-19T22:41:16.052Z,100.00
2023-02-19T22:43:43.512Z,100.00
2023-02-19T22:46:12.500Z,100.00
2023-02-19T22:48:39.723Z,100.00
2023-02-19T22:51:13.632Z,100.00
2023-02-19T22:53:51.111Z,100.00
2023-02-19T22:56:18.827Z,100.00
2023-02-19T22:58:45.809Z,99.88
2023-02-19T23:01:13.310Z,100.00
2023-02-19T23:03:50.753Z,100.00
2023-02-19T23:06:20.893Z,100.00
2023-02-19T23:08:48.006Z,100.00
2023-02-19T23:11:19.861Z,100.00
2023-02-19T23:13:46.903Z,100.00
2023-02-19T23:16:14.094Z,100.00
2023-02-19T23:18:41.361Z,100.00
2023-02-19T23:21:08.360Z,100.00
2023-02-19T23:23:35.259Z,100.00
2023-02-19T23:26:03.163Z,100.00
2023-02-19T23:28:30.622Z,100.00
2023-02-19T23:30:57.611Z,100.00
2023-02-19T23:33:24.382Z,100.00
2023-02-19T23:35:50.945Z,100.00
2023-02-19T23:38:18.191Z,100.00
2023-02-19T23:40:45.427Z,100.00
2023-02-19T23:43:12.781Z,100.00
2023-02-19T23:45:39.722Z,100.00
2023-02-19T23:48:06.598Z,100.00
2023-02-19T23:50:34.714Z,100.00
2023-02-19T23:53:01.513Z,100.00
2023-02-19T23:55:28.655Z,100.00
2023-02-19T23:57:57.891Z,100.00
